createdAt,value
2023-05-21T00:00:18.886Z,936.78
2023-05-21T00:01:19.001Z,936.74
2023-05-21T00:02:18.998Z,936.73
2023-05-21T00:03:19.098Z,936.73
2023-05-21T00:04:18.945Z,936.73
2023-05-21T00:05:18.962Z,936.72
2023-05-21T00:06:19.010Z,936.75
2023-05-21T00:07:19.079Z,936.73
2023-05-21T00:08:19.198Z,936.78
2023-05-21T00:09:19.092Z,936.78
2023-05-21T00:10:19.027Z,936.80
2023-05-21T00:11:19.030Z,936.78
2023-05-21T00:12:19.147Z,936.81
2023-05-21T00:13:19.056Z,936.76
2023-05-21T00:14:19.070Z,936.76
2023-05-21T00:15:19.088Z,936.79
2023-05-21T00:16:19.172Z,936.74
2023-05-21T00:17:19.120Z,936.70
2023-05-21T00:18:19.222Z,936.70
2023-05-21T00:19:19.175Z,936.69
2023-05-21T00:20:19.158Z,936.69
2023-05-21T00:21:19.165Z,936.71
2023-05-21T00:22:19.175Z,936.71
2023-05-21T00:23:19.181Z,936.71
2023-05-21T00:24:19.300Z,936.74
2023-05-21T00:25:19.282Z,936.67
2023-05-21T00:26:19.226Z,936.71
2023-05-21T00:27:19.247Z,936.71
2023-05-21T00:28:19.249Z,936.72
2023-05-21T00:29:19.356Z,936.72
2023-05-21T00:30:19.323Z,936.71
2023-05-21T00:31:19.339Z,936.76
2023-05-21T00:32:19.297Z,936.72
2023-05-21T00:33:19.316Z,936.71
2023-05-21T00:34:19.355Z,936.74
2023-05-21T00:35:19.434Z,936.74
2023-05-21T00:36:19.344Z,936.74
2023-05-21T00:37:19.367Z,936.71
2023-05-21T00:38:19.378Z,936.74
2023-05-21T00:39:19.391Z,936.76
2023-05-21T00:40:19.405Z,936.78
2023-05-21T00:41:19.585Z,936.78
2023-05-21T00:42:19.428Z,936.74
2023-05-21T00:43:19.446Z,936.74
2023-05-21T00:44:19.447Z,936.70
2023-05-21T00:45:19.469Z,936.69
2023-05-21T00:46:19.510Z,936.66
2023-05-21T00:47:19.592Z,936.65
2023-05-21T00:48:19.499Z,936.64
2023-05-21T00:49:19.515Z,936.65
2023-05-21T00:50:19.525Z,936.63
2023-05-21T00:51:19.541Z,936.61
2023-05-21T00:52:19.555Z,936.61
2023-05-21T00:53:19.672Z,936.64
2023-05-21T00:54:19.587Z,936.65
2023-05-21T00:55:19.601Z,936.67
2023-05-21T00:56:19.612Z,936.70
2023-05-21T00:57:19.641Z,936.70
2023-05-21T00:58:19.734Z,936.75
2023-05-21T00:59:19.643Z,936.68
2023-05-21T01:00:19.663Z,936.70
2023-05-21T01:01:19.737Z,936.71
2023-05-21T01:02:19.716Z,936.70
2023-05-21T01:03:19.891Z,936.72
2023-05-21T01:04:19.701Z,936.75
2023-05-21T01:05:19.721Z,936.77
2023-05-21T01:06:19.725Z,936.71
2023-05-21T01:07:19.753Z,936.73
2023-05-21T01:08:19.762Z,936.77
2023-05-21T01:09:19.868Z,936.74
2023-05-21T01:10:19.778Z,936.75
2023-05-21T01:11:19.799Z,936.74
2023-05-21T01:12:19.801Z,936.72
2023-05-21T01:13:19.847Z,936.73
2023-05-21T01:14:19.933Z,936.73
2023-05-21T01:15:19.857Z,936.79
2023-05-21T01:16:19.900Z,936.78
2023-05-21T01:17:19.913Z,936.79
2023-05-21T01:18:19.940Z,936.80
2023-05-21T01:19:19.923Z,936.80
2023-05-21T01:20:20.036Z,936.84
2023-05-21T01:21:19.928Z,936.83
2023-05-21T01:22:19.936Z,936.83
2023-05-21T01:23:19.942Z,936.83
2023-05-21T01:24:19.961Z,936.88
2023-05-21T01:25:19.971Z,936.85
2023-05-21T01:26:20.087Z,936.88
2023-05-21T01:27:20.000Z,936.83
2023-05-21T01:28:20.026Z,936.85
2023-05-21T01:29:20.040Z,936.82
2023-05-21T01:30:20.038Z,936.78
2023-05-21T01:31:20.145Z,936.77
2023-05-21T01:32:20.059Z,936.75
2023-05-21T01:33:20.186Z,936.76
2023-05-21T01:34:20.099Z,936.65
2023-05-21T01:35:20.101Z,936.66
2023-05-21T01:36:20.214Z,936.56
2023-05-21T01:37:20.120Z,936.59
2023-05-21T01:38:20.134Z,936.58
2023-05-21T01:39:20.145Z,936.61
2023-05-21T01:40:20.165Z,936.57
2023-05-21T01:41:20.279Z,936.59
2023-05-21T01:42:20.185Z,936.64
2023-05-21T01:43:20.220Z,936.64
2023-05-21T01:44:20.231Z,936.63
2023-05-21T01:45:20.239Z,936.65
2023-05-21T01:46:20.388Z,936.65
2023-05-21T01:47:20.385Z,936.67
2023-05-21T01:48:20.277Z,936.66
2023-05-21T01:49:20.276Z,936.70
2023-05-21T01:50:20.306Z,936.69
2023-05-21T01:51:20.306Z,936.74
2023-05-21T01:52:20.416Z,936.73
2023-05-21T01:53:20.344Z,936.71
2023-05-21T01:54:20.357Z,936.71
2023-05-21T01:55:20.357Z,936.71
2023-05-21T01:56:20.373Z,936.74
2023-05-21T01:57:20.484Z,936.71
2023-05-21T01:58:20.384Z,936.72
2023-05-21T01:59:20.403Z,936.68
2023-05-21T02:00:20.416Z,936.66
2023-05-21T02:01:20.488Z,936.65
2023-05-21T02:02:20.448Z,936.66
2023-05-21T02:03:20.697Z,936.68
2023-05-21T02:04:20.467Z,936.66
2023-05-21T02:05:20.501Z,936.68
2023-05-21T02:06:20.489Z,936.67
2023-05-21T02:07:20.513Z,936.68
2023-05-21T02:08:20.642Z,936.68
2023-05-21T02:09:20.537Z,936.71
2023-05-21T02:10:20.551Z,936.69
2023-05-21T02:11:20.565Z,936.65
2023-05-21T02:12:20.571Z,936.64
2023-05-21T02:13:21.438Z,936.62
2023-05-21T02:14:20.724Z,936.59
2023-05-21T02:15:20.639Z,936.62
2023-05-21T02:16:20.631Z,936.60
2023-05-21T02:17:20.665Z,936.57
2023-05-21T02:18:20.652Z,936.57
2023-05-21T02:19:20.813Z,936.64
2023-05-21T02:20:20.671Z,936.60
2023-05-21T02:21:20.747Z,936.61
2023-05-21T02:22:20.690Z,936.61
2023-05-21T02:23:20.708Z,936.63
2023-05-21T02:24:20.820Z,936.63
2023-05-21T02:25:20.743Z,936.63
2023-05-21T02:26:20.759Z,936.66
2023-05-21T02:27:21.365Z,936.63
2023-05-21T02:28:20.784Z,936.64
2023-05-21T02:29:20.905Z,936.64
2023-05-21T02:30:20.828Z,936.60
2023-05-21T02:31:20.808Z,936.57
2023-05-21T02:32:20.846Z,936.55
2023-05-21T02:33:20.888Z,936.53
2023-05-21T02:34:21.043Z,936.55
2023-05-21T02:35:20.966Z,936.52
2023-05-21T02:36:20.874Z,936.48
2023-05-21T02:37:20.886Z,936.47
2023-05-21T02:38:20.896Z,936.49
2023-05-21T02:39:20.909Z,936.46
2023-05-21T02:40:21.032Z,936.47
2023-05-21T02:41:20.946Z,936.45
2023-05-21T02:42:20.957Z,936.43
2023-05-21T02:43:20.962Z,936.41
2023-05-21T02:44:20.977Z,936.46
2023-05-21T02:45:20.986Z,936.46
2023-05-21T02:46:21.145Z,936.42
2023-05-21T02:47:21.016Z,936.39
2023-05-21T02:48:21.018Z,936.37
2023-05-21T02:49:21.056Z,936.35
2023-05-21T02:50:21.049Z,936.37
2023-05-21T02:51:21.057Z,936.36
2023-05-21T02:52:21.171Z,936.38
2023-05-21T02:53:21.090Z,936.36
2023-05-21T02:54:21.093Z,936.41
2023-05-21T02:55:21.116Z,936.41
2023-05-21T02:56:21.125Z,936.39
2023-05-21T02:57:21.245Z,936.41
2023-05-21T02:58:21.212Z,936.44
2023-05-21T02:59:21.156Z,936.42
2023-05-21T03:00:21.169Z,936.42
2023-05-21T03:01:21.244Z,936.40
2023-05-21T03:02:21.403Z,936.43
2023-05-21T03:03:21.299Z,936.43
2023-05-21T03:04:21.234Z,936.45
2023-05-21T03:05:21.255Z,936.46
2023-05-21T03:06:21.254Z,936.44
2023-05-21T03:07:21.358Z,936.45
2023-05-21T03:08:21.273Z,936.43
2023-05-21T03:09:21.322Z,936.46
2023-05-21T03:10:21.292Z,936.43
2023-05-21T03:11:21.311Z,936.39
2023-05-21T03:12:21.316Z,936.41
2023-05-21T03:13:21.462Z,936.43
2023-05-21T03:14:21.350Z,936.45
2023-05-21T03:15:21.356Z,936.43
2023-05-21T03:16:21.460Z,936.44
2023-05-21T03:17:21.381Z,936.42
2023-05-21T03:18:21.501Z,936.41
2023-05-21T03:19:21.450Z,936.40
2023-05-21T03:20:21.428Z,936.42
2023-05-21T03:21:21.495Z,936.39
2023-05-21T03:22:21.444Z,936.38
2023-05-21T03:23:21.566Z,936.37
2023-05-21T03:24:21.471Z,936.36
2023-05-21T03:25:21.499Z,936.38
2023-05-21T03:26:21.502Z,936.37
2023-05-21T03:27:21.515Z,936.40
2023-05-21T03:28:21.540Z,936.40
2023-05-21T03:29:21.641Z,936.40
2023-05-21T03:30:21.547Z,936.40
2023-05-21T03:31:21.616Z,936.46
2023-05-21T03:32:21.626Z,936.44
2023-05-21T03:33:21.592Z,936.46
2023-05-21T03:34:21.604Z,936.43
2023-05-21T03:35:21.716Z,936.45
2023-05-21T03:36:21.628Z,936.43
2023-05-21T03:37:21.659Z,936.45
2023-05-21T03:38:21.651Z,936.43
2023-05-21T03:39:21.670Z,936.46
2023-05-21T03:40:21.677Z,936.44
2023-05-21T03:41:21.784Z,936.43
2023-05-21T03:42:21.703Z,936.45
2023-05-21T03:43:21.709Z,936.41
2023-05-21T03:44:21.728Z,936.36
2023-05-21T03:45:21.735Z,936.38
2023-05-21T03:46:21.763Z,936.37
2023-05-21T03:47:21.931Z,936.35
2023-05-21T03:48:21.772Z,936.33
2023-05-21T03:49:21.789Z,936.30
2023-05-21T03:50:21.804Z,936.32
2023-05-21T03:51:21.809Z,936.30
2023-05-21T03:52:21.820Z,936.28
2023-05-21T03:53:21.974Z,936.26
2023-05-21T03:54:21.853Z,936.29
2023-05-21T03:55:21.857Z,936.26
2023-05-21T03:56:21.877Z,936.24
2023-05-21T03:57:21.884Z,936.26
2023-05-21T03:58:22.004Z,936.23
2023-05-21T03:59:21.913Z,936.19
2023-05-21T04:00:21.921Z,936.14
2023-05-21T04:01:21.942Z,936.16
2023-05-21T04:02:22.000Z,936.12
2023-05-21T04:03:22.115Z,936.14
2023-05-21T04:04:22.168Z,936.10
2023-05-21T04:05:21.994Z,936.10
2023-05-21T04:06:22.002Z,936.08
2023-05-21T04:07:22.006Z,936.07
2023-05-21T04:08:22.024Z,936.06
2023-05-21T04:09:22.161Z,936.04
2023-05-21T04:10:22.050Z,936.05
2023-05-21T04:11:22.063Z,936.06
2023-05-21T04:12:22.069Z,936.05
2023-05-21T04:13:22.078Z,936.01
2023-05-21T04:14:22.101Z,936.04
2023-05-21T04:15:22.213Z,936.05
2023-05-21T04:16:22.144Z,936.03
2023-05-21T04:17:22.145Z,936.05
2023-05-21T04:18:22.149Z,936.00
2023-05-21T04:19:22.213Z,935.99
2023-05-21T04:20:22.172Z,935.99
2023-05-21T04:21:22.286Z,935.99
2023-05-21T04:22:22.201Z,935.98
2023-05-21T04:23:22.221Z,936.02
2023-05-21T04:24:22.217Z,936.02
2023-05-21T04:25:22.273Z,936.03
2023-05-21T04:26:22.350Z,936.03
2023-05-21T04:27:22.254Z,936.00
2023-05-21T04:28:22.269Z,936.02
2023-05-21T04:29:22.280Z,936.01
2023-05-21T04:30:22.294Z,936.00
2023-05-21T04:31:22.357Z,936.03
2023-05-21T04:32:22.475Z,936.02
2023-05-21T04:33:22.328Z,936.05
2023-05-21T04:34:22.353Z,936.04
2023-05-21T04:35:22.360Z,936.01
2023-05-21T04:36:22.376Z,936.02
2023-05-21T04:37:22.490Z,936.02
2023-05-21T04:38:22.389Z,935.95
2023-05-21T04:39:22.407Z,935.98
2023-05-21T04:40:22.413Z,935.98
2023-05-21T04:41:22.459Z,935.99
2023-05-21T04:42:22.447Z,935.96
2023-05-21T04:43:22.553Z,936.00
2023-05-21T04:44:22.472Z,936.02
2023-05-21T04:45:22.476Z,935.99
2023-05-21T04:46:22.503Z,936.00
2023-05-21T04:47:22.532Z,936.04
2023-05-21T04:48:22.539Z,936.01
2023-05-21T04:49:22.640Z,935.97
2023-05-21T04:50:22.536Z,935.96
2023-05-21T04:51:22.557Z,935.90
2023-05-21T04:52:22.566Z,935.88
2023-05-21T04:53:22.599Z,935.88
2023-05-21T04:54:22.590Z,935.86
2023-05-21T04:55:22.700Z,935.87
2023-05-21T04:56:22.615Z,935.82
2023-05-21T04:57:22.654Z,935.84
2023-05-21T04:58:22.642Z,935.87
2023-05-21T04:59:22.661Z,935.85
2023-05-21T05:00:22.691Z,935.85
2023-05-21T05:01:22.913Z,935.88
2023-05-21T05:02:22.753Z,935.86
2023-05-21T05:03:22.769Z,935.87
2023-05-21T05:04:22.711Z,935.87
2023-05-21T05:05:22.732Z,935.87
2023-05-21T05:06:23.043Z,935.88
2023-05-21T05:07:22.750Z,935.88
2023-05-21T05:08:22.758Z,935.84
2023-05-21T05:09:22.776Z,935.83
2023-05-21T05:10:22.798Z,935.81
2023-05-21T05:11:22.809Z,935.78
2023-05-21T05:12:22.913Z,935.75
2023-05-21T05:13:22.852Z,935.76
2023-05-21T05:14:22.838Z,935.74
2023-05-21T05:15:22.851Z,935.73
2023-05-21T05:16:22.928Z,935.69
2023-05-21T05:17:22.889Z,935.70
2023-05-21T05:18:22.985Z,935.68
2023-05-21T05:19:22.977Z,935.60
2023-05-21T05:20:22.908Z,935.56
2023-05-21T05:21:22.933Z,935.56
2023-05-21T05:22:22.949Z,935.57
2023-05-21T05:23:22.949Z,935.54
2023-05-21T05:24:23.066Z,935.53
2023-05-21T05:25:22.977Z,935.53
2023-05-21T05:26:22.993Z,935.57
2023-05-21T05:27:22.991Z,935.56
2023-05-21T05:28:23.010Z,935.54
2023-05-21T05:29:23.136Z,935.56
2023-05-21T05:30:23.028Z,935.59
2023-05-21T05:31:23.095Z,935.59
2023-05-21T05:32:23.078Z,935.56
2023-05-21T05:33:23.066Z,935.53
2023-05-21T05:34:23.189Z,935.53
2023-05-21T05:35:23.089Z,935.54
2023-05-21T05:36:23.110Z,935.48
2023-05-21T05:37:23.121Z,935.47
2023-05-21T05:38:23.133Z,935.46
2023-05-21T05:39:23.250Z,935.46
2023-05-21T05:40:23.153Z,935.43
2023-05-21T05:41:23.185Z,935.39
2023-05-21T05:42:23.175Z,935.39
2023-05-21T05:43:23.188Z,935.38
2023-05-21T05:44:23.300Z,935.40
2023-05-21T05:45:23.238Z,935.37
2023-05-21T05:46:23.336Z,935.36
2023-05-21T05:47:23.233Z,935.34
2023-05-21T05:48:23.264Z,935.31
2023-05-21T05:49:23.256Z,935.34
2023-05-21T05:50:23.380Z,935.32
2023-05-21T05:51:23.294Z,935.33
2023-05-21T05:52:23.300Z,935.30
2023-05-21T05:53:23.318Z,935.32
2023-05-21T05:54:23.335Z,935.32
2023-05-21T05:55:23.330Z,935.33
2023-05-21T05:56:23.443Z,935.32
2023-05-21T05:57:23.358Z,935.31
2023-05-21T05:58:23.366Z,935.29
2023-05-21T05:59:23.404Z,935.31
2023-05-21T06:00:23.393Z,935.31
2023-05-21T06:01:23.436Z,935.29
2023-05-21T06:02:23.581Z,935.26
2023-05-21T06:03:23.570Z,935.27
2023-05-21T06:04:23.447Z,935.24
2023-05-21T06:05:23.496Z,935.23
2023-05-21T06:06:23.492Z,935.24
2023-05-21T06:07:23.475Z,935.29
2023-05-21T06:08:23.595Z,935.23
2023-05-21T06:09:23.501Z,935.24
2023-05-21T06:10:23.519Z,935.20
2023-05-21T06:11:23.523Z,935.27
2023-05-21T06:12:23.536Z,935.25
2023-05-21T06:13:23.662Z,935.23
2023-05-21T06:14:23.575Z,935.24
2023-05-21T06:15:23.568Z,935.23
2023-05-21T06:16:23.639Z,935.23
2023-05-21T06:17:23.784Z,935.20
2023-05-21T06:18:23.608Z,935.18
2023-05-21T06:19:23.788Z,935.17
2023-05-21T06:20:23.636Z,935.19
2023-05-21T06:21:23.682Z,935.18
2023-05-21T06:22:25.570Z,935.15
2023-05-21T06:23:23.693Z,935.18
2023-05-21T06:24:23.785Z,935.17
2023-05-21T06:25:23.700Z,935.21
2023-05-21T06:26:23.717Z,935.16
2023-05-21T06:27:23.726Z,935.18
2023-05-21T06:28:23.738Z,935.18
2023-05-21T06:29:23.748Z,935.22
2023-05-21T06:30:23.855Z,935.21
2023-05-21T06:31:23.765Z,935.22
2023-05-21T06:32:23.884Z,935.24
2023-05-21T06:33:23.903Z,935.23
2023-05-21T06:34:23.811Z,935.23
2023-05-21T06:35:23.813Z,935.22
2023-05-21T06:36:23.935Z,935.20
2023-05-21T06:37:25.952Z,935.20
2023-05-21T06:38:23.862Z,935.18
2023-05-21T06:39:23.866Z,935.19
2023-05-21T06:40:23.889Z,935.16
2023-05-21T06:41:23.891Z,935.14
2023-05-21T06:42:24.006Z,935.14
2023-05-21T06:43:23.919Z,935.11
2023-05-21T06:44:23.927Z,935.14
2023-05-21T06:45:23.943Z,935.08
2023-05-21T06:46:24.007Z,935.07
2023-05-21T06:47:24.001Z,935.05
2023-05-21T06:48:24.072Z,935.03
2023-05-21T06:49:24.007Z,935.05
2023-05-21T06:50:24.000Z,934.99
2023-05-21T06:51:24.012Z,934.97
2023-05-21T06:52:24.026Z,934.94
2023-05-21T06:53:24.155Z,934.91
2023-05-21T06:54:26.699Z,934.89
2023-05-21T06:55:24.058Z,934.83
2023-05-21T06:56:24.077Z,934.83
2023-05-21T06:57:24.079Z,934.84
2023-05-21T06:58:24.096Z,934.83
2023-05-21T06:59:24.219Z,934.81
2023-05-21T07:00:24.123Z,934.79
2023-05-21T07:01:24.144Z,934.80
2023-05-21T07:02:24.231Z,934.81
2023-05-21T07:03:24.282Z,934.79
2023-05-21T07:04:24.172Z,934.77
2023-05-21T07:05:24.296Z,934.80
2023-05-21T07:06:24.190Z,934.81
2023-05-21T07:07:24.207Z,934.84
2023-05-21T07:08:24.213Z,934.85
2023-05-21T07:09:24.232Z,934.85
2023-05-21T07:10:24.335Z,934.88
2023-05-21T07:11:24.247Z,934.86
2023-05-21T07:12:24.268Z,934.90
2023-05-21T07:13:24.277Z,934.85
2023-05-21T07:14:24.286Z,934.88
2023-05-21T07:15:24.316Z,934.82
2023-05-21T07:16:24.452Z,934.85
2023-05-21T07:17:24.359Z,934.88
2023-05-21T07:18:24.333Z,934.85
2023-05-21T07:19:24.364Z,934.87
2023-05-21T07:20:24.379Z,934.89
2023-05-21T07:21:24.399Z,934.91
2023-05-21T07:22:26.605Z,934.95
2023-05-21T07:23:24.397Z,935.00
2023-05-21T07:24:24.410Z,935.01
2023-05-21T07:25:24.421Z,935.03
2023-05-21T07:26:24.434Z,935.07
2023-05-21T07:27:25.692Z,935.08
2023-05-21T07:28:24.460Z,935.11
2023-05-21T07:29:24.477Z,935.15
2023-05-21T07:30:24.507Z,935.17
2023-05-21T07:31:24.519Z,935.18
2023-05-21T07:32:24.529Z,935.17
2023-05-21T07:33:24.617Z,935.19
2023-05-21T07:34:24.524Z,935.25
2023-05-21T07:35:24.546Z,935.24
2023-05-21T07:36:24.553Z,935.27
2023-05-21T07:37:24.627Z,935.28
2023-05-21T07:38:24.588Z,935.30
2023-05-21T07:39:24.701Z,935.29
2023-05-21T07:40:24.617Z,935.29
2023-05-21T07:41:24.611Z,935.31
2023-05-21T07:42:24.627Z,935.30
2023-05-21T07:43:24.637Z,935.28
2023-05-21T07:44:24.744Z,935.23
2023-05-21T07:45:24.658Z,935.21
2023-05-21T07:46:24.714Z,935.19
2023-05-21T07:47:24.735Z,935.15
2023-05-21T07:48:24.721Z,935.14
2023-05-21T07:49:24.721Z,935.14
2023-05-21T07:50:24.856Z,935.08
2023-05-21T07:51:24.730Z,935.12
2023-05-21T07:52:24.782Z,935.12
2023-05-21T07:53:24.780Z,935.15
2023-05-21T07:54:24.773Z,935.15
2023-05-21T07:55:24.785Z,935.16
2023-05-21T07:56:24.909Z,935.17
2023-05-21T07:57:24.817Z,935.18
2023-05-21T07:58:24.811Z,935.18
2023-05-21T07:59:24.826Z,935.17
2023-05-21T08:00:24.842Z,935.17
2023-05-21T08:01:24.849Z,935.17
2023-05-21T08:02:25.045Z,935.12
2023-05-21T08:03:25.022Z,935.15
2023-05-21T08:04:25.177Z,935.17
2023-05-21T08:05:24.910Z,935.18
2023-05-21T08:06:24.905Z,935.16
2023-05-21T08:07:24.920Z,935.18
2023-05-21T08:08:25.033Z,935.22
2023-05-21T08:09:24.967Z,935.22
2023-05-21T08:10:24.963Z,935.29
2023-05-21T08:11:24.974Z,935.28
2023-05-21T08:12:24.987Z,935.26
2023-05-21T08:13:24.992Z,935.28
2023-05-21T08:14:25.106Z,935.32
2023-05-21T08:15:25.022Z,935.31
2023-05-21T08:16:25.066Z,935.30
2023-05-21T08:17:25.113Z,935.29
2023-05-21T08:18:25.049Z,935.24
2023-05-21T08:19:25.121Z,935.30
2023-05-21T08:20:25.175Z,935.26
2023-05-21T08:21:25.094Z,935.25
2023-05-21T08:22:25.112Z,935.24
2023-05-21T08:23:25.120Z,935.22
2023-05-21T08:24:25.136Z,935.22
2023-05-21T08:25:25.259Z,935.20
2023-05-21T08:26:25.155Z,935.17
2023-05-21T08:27:25.159Z,935.18
2023-05-21T08:28:25.179Z,935.20
2023-05-21T08:29:25.190Z,935.23
2023-05-21T08:30:25.201Z,935.25
2023-05-21T08:31:25.375Z,935.28
2023-05-21T08:32:25.251Z,935.31
2023-05-21T08:33:25.230Z,935.31
2023-05-21T08:34:25.238Z,935.31
2023-05-21T08:35:25.260Z,935.32
2023-05-21T08:36:25.372Z,935.36
2023-05-21T08:37:25.285Z,935.39
2023-05-21T08:38:25.299Z,935.38
2023-05-21T08:39:25.307Z,935.42
2023-05-21T08:40:25.320Z,935.42
2023-05-21T08:41:25.342Z,935.48
2023-05-21T08:42:35.700Z,935.53
2023-05-21T08:43:25.355Z,935.50
2023-05-21T08:44:25.360Z,935.55
2023-05-21T08:45:25.375Z,935.52
2023-05-21T08:46:25.475Z,935.56
2023-05-21T08:47:25.568Z,935.55
2023-05-21T08:48:25.424Z,935.57
2023-05-21T08:49:27.158Z,935.57
2023-05-21T08:50:25.436Z,935.51
2023-05-21T08:51:25.448Z,935.45
2023-05-21T08:52:25.554Z,935.41
2023-05-21T08:53:28.600Z,935.37
2023-05-21T08:54:25.504Z,935.31
2023-05-21T08:55:25.508Z,935.34
2023-05-21T08:56:25.507Z,935.37
2023-05-21T08:57:25.557Z,935.39
2023-05-21T08:58:25.635Z,935.39
2023-05-21T08:59:25.535Z,935.47
2023-05-21T09:00:25.547Z,935.52
2023-05-21T09:01:26.632Z,935.54
2023-05-21T09:02:25.595Z,935.64
2023-05-21T09:03:25.752Z,935.67
2023-05-21T09:04:25.719Z,935.72
2023-05-21T09:05:25.613Z,935.75
2023-05-21T09:06:25.657Z,935.78
2023-05-21T09:07:25.651Z,935.81
2023-05-21T09:08:25.754Z,935.86
2023-05-21T09:09:25.667Z,935.80
2023-05-21T09:10:25.672Z,935.84
2023-05-21T09:11:25.676Z,935.81
2023-05-21T09:12:25.693Z,935.85
2023-05-21T09:13:25.903Z,935.86
2023-05-21T09:14:25.710Z,935.80
2023-05-21T09:15:25.741Z,935.86
2023-05-21T09:16:25.744Z,935.84
2023-05-21T09:17:25.768Z,935.85
2023-05-21T09:18:25.866Z,935.89
2023-05-21T09:19:25.855Z,935.90
2023-05-21T09:20:25.793Z,935.89
2023-05-21T09:21:25.801Z,935.88
2023-05-21T09:22:25.813Z,935.87
2023-05-21T09:23:25.818Z,935.92
2023-05-21T09:24:25.941Z,935.93
2023-05-21T09:25:25.856Z,935.97
2023-05-21T09:26:25.876Z,935.99
2023-05-21T09:27:25.865Z,936.10
2023-05-21T09:28:25.893Z,936.13
2023-05-21T09:29:26.117Z,936.18
2023-05-21T09:30:34.934Z,936.21
2023-05-21T09:31:26.058Z,936.23
2023-05-21T09:32:26.004Z,936.27
2023-05-21T09:33:25.958Z,936.26
2023-05-21T09:34:25.958Z,936.30
2023-05-21T09:35:26.065Z,936.36
2023-05-21T09:36:25.990Z,936.37
2023-05-21T09:37:27.423Z,936.36
2023-05-21T09:38:26.000Z,936.41
2023-05-21T09:39:26.013Z,936.45
2023-05-21T09:40:26.026Z,936.53
2023-05-21T09:41:26.129Z,936.55
2023-05-21T09:42:26.038Z,936.60
2023-05-21T09:43:26.059Z,936.64
2023-05-21T09:44:26.062Z,936.63
2023-05-21T09:45:26.137Z,936.65
2023-05-21T09:46:26.114Z,936.68
2023-05-21T09:47:26.250Z,936.67
2023-05-21T09:48:26.111Z,936.66
2023-05-21T09:49:26.132Z,936.65
2023-05-21T09:50:26.145Z,936.62
2023-05-21T09:51:26.153Z,936.62
2023-05-21T09:52:26.164Z,936.64
2023-05-21T09:53:26.269Z,936.72
2023-05-21T09:54:26.189Z,936.70
2023-05-21T09:55:26.197Z,936.69
2023-05-21T09:56:26.218Z,936.74
2023-05-21T09:57:26.218Z,936.71
2023-05-21T09:58:26.336Z,936.74
2023-05-21T09:59:26.251Z,936.71
2023-05-21T10:00:26.262Z,936.66
2023-05-21T10:01:26.383Z,936.59
2023-05-21T10:02:26.347Z,936.58
2023-05-21T10:03:26.288Z,936.50
2023-05-21T10:04:26.434Z,936.50
2023-05-21T10:05:26.310Z,936.52
2023-05-21T10:06:26.321Z,936.56
2023-05-21T10:07:26.557Z,936.58
2023-05-21T10:08:26.353Z,936.58
2023-05-21T10:09:26.357Z,936.63
2023-05-21T10:10:26.477Z,936.66
2023-05-21T10:11:26.406Z,936.66
2023-05-21T10:12:26.433Z,936.67
2023-05-21T10:13:26.414Z,936.65
2023-05-21T10:14:26.414Z,936.58
2023-05-21T10:15:26.433Z,936.56
2023-05-21T10:16:26.621Z,936.52
2023-05-21T10:17:26.514Z,936.46
2023-05-21T10:18:26.461Z,936.47
2023-05-21T10:19:26.646Z,936.48
2023-05-21T10:20:26.494Z,936.54
2023-05-21T10:21:26.494Z,936.59
2023-05-21T10:22:26.618Z,936.64
2023-05-21T10:23:26.520Z,936.61
2023-05-21T10:24:26.541Z,936.62
2023-05-21T10:25:26.550Z,936.65
2023-05-21T10:26:26.559Z,936.63
2023-05-21T10:27:26.667Z,936.58
2023-05-21T10:28:26.589Z,936.55
2023-05-21T10:29:26.589Z,936.53
2023-05-21T10:30:26.607Z,936.54
2023-05-21T10:31:26.637Z,936.49
2023-05-21T10:32:26.718Z,936.54
2023-05-21T10:33:26.810Z,936.51
2023-05-21T10:34:26.647Z,936.53
2023-05-21T10:35:26.671Z,936.53
2023-05-21T10:36:26.679Z,936.55
2023-05-21T10:37:26.695Z,936.50
2023-05-21T10:38:26.752Z,936.53
2023-05-21T10:39:26.808Z,936.50
2023-05-21T10:40:26.722Z,936.48
2023-05-21T10:41:26.742Z,936.47
2023-05-21T10:42:26.740Z,936.54
2023-05-21T10:43:26.763Z,936.48
2023-05-21T10:44:26.767Z,936.52
2023-05-21T10:45:26.905Z,936.53
2023-05-21T10:46:26.796Z,936.58
2023-05-21T10:47:26.838Z,936.60
2023-05-21T10:48:26.820Z,936.60
2023-05-21T10:49:26.853Z,936.58
2023-05-21T10:50:26.836Z,936.56
2023-05-21T10:51:26.953Z,936.59
2023-05-21T10:52:26.867Z,936.59
2023-05-21T10:53:26.912Z,936.61
2023-05-21T10:54:26.926Z,936.62
2023-05-21T10:55:26.907Z,936.67
2023-05-21T10:56:26.909Z,936.77
2023-05-21T10:57:27.020Z,936.80
2023-05-21T10:58:29.317Z,936.85
2023-05-21T10:59:26.948Z,936.93
2023-05-21T11:00:26.959Z,936.94
2023-05-21T11:01:27.019Z,936.98
2023-05-21T11:02:27.046Z,936.99
2023-05-21T11:03:27.347Z,936.98
2023-05-21T11:04:27.009Z,936.96
2023-05-21T11:05:27.122Z,936.94
2023-05-21T11:06:27.052Z,936.93
2023-05-21T11:07:27.035Z,936.93
2023-05-21T11:08:27.057Z,936.97
2023-05-21T11:09:27.176Z,936.97
2023-05-21T11:10:27.075Z,937.02
2023-05-21T11:11:27.094Z,937.06
2023-05-21T11:12:27.094Z,937.07
2023-05-21T11:13:27.111Z,937.07
2023-05-21T11:14:27.232Z,937.09
2023-05-21T11:15:27.134Z,937.06
2023-05-21T11:16:27.184Z,937.04
2023-05-21T11:17:27.194Z,936.99
2023-05-21T11:18:27.161Z,936.94
2023-05-21T11:19:27.308Z,936.96
2023-05-21T11:20:27.288Z,936.93
2023-05-21T11:21:27.234Z,936.88
2023-05-21T11:22:27.230Z,936.85
2023-05-21T11:23:27.230Z,936.80
2023-05-21T11:24:27.235Z,936.79
2023-05-21T11:25:27.348Z,936.79
2023-05-21T11:26:27.265Z,936.78
2023-05-21T11:27:27.267Z,936.78
2023-05-21T11:28:27.281Z,936.76
2023-05-21T11:29:27.292Z,936.79
2023-05-21T11:30:27.306Z,936.81
2023-05-21T11:31:27.471Z,936.87
2023-05-21T11:32:27.350Z,936.92
2023-05-21T11:33:27.351Z,936.91
2023-05-21T11:34:27.357Z,937.00
2023-05-21T11:35:27.370Z,937.02
2023-05-21T11:36:27.375Z,937.08
2023-05-21T11:37:27.527Z,937.06
2023-05-21T11:38:27.397Z,937.10
2023-05-21T11:39:27.424Z,937.14
2023-05-21T11:40:27.430Z,937.16
2023-05-21T11:41:27.433Z,937.18
2023-05-21T11:42:27.444Z,937.18
2023-05-21T11:43:27.560Z,937.16
2023-05-21T11:44:27.475Z,937.17
2023-05-21T11:45:27.488Z,937.12
2023-05-21T11:46:27.549Z,937.13
2023-05-21T11:47:27.562Z,937.05
2023-05-21T11:48:28.522Z,937.02
2023-05-21T11:49:27.633Z,937.01
2023-05-21T11:50:27.542Z,937.02
2023-05-21T11:51:27.565Z,937.06
2023-05-21T11:52:27.560Z,937.05
2023-05-21T11:53:27.679Z,937.08
2023-05-21T11:54:27.700Z,937.03
2023-05-21T11:55:27.594Z,937.05
2023-05-21T11:56:27.612Z,936.99
2023-05-21T11:57:27.614Z,937.02
2023-05-21T11:58:27.637Z,937.00
2023-05-21T11:59:27.754Z,937.00
2023-05-21T12:00:27.668Z,937.07
2023-05-21T12:01:27.684Z,937.09
2023-05-21T12:02:27.717Z,937.12
2023-05-21T12:03:27.794Z,937.13
2023-05-21T12:04:27.813Z,937.17
2023-05-21T12:05:27.718Z,937.18
2023-05-21T12:06:27.875Z,937.17
2023-05-21T12:07:27.760Z,937.17
2023-05-21T12:08:27.753Z,937.15
2023-05-21T12:09:27.781Z,937.13
2023-05-21T12:10:27.875Z,937.15
2023-05-21T12:11:27.780Z,937.21
2023-05-21T12:12:35.327Z,937.20
2023-05-21T12:13:27.815Z,937.25
2023-05-21T12:14:27.849Z,937.32
2023-05-21T12:15:28.074Z,937.31
2023-05-21T12:16:27.880Z,937.34
2023-05-21T12:17:27.884Z,937.32
2023-05-21T12:18:27.869Z,937.33
2023-05-21T12:19:28.020Z,937.35
2023-05-21T12:20:28.091Z,937.35
2023-05-21T12:21:27.999Z,937.36
2023-05-21T12:22:27.935Z,937.39
2023-05-21T12:23:27.918Z,937.43
2023-05-21T12:24:27.932Z,937.49
2023-05-21T12:25:27.992Z,937.50
2023-05-21T12:26:28.073Z,937.52
2023-05-21T12:27:27.980Z,937.56
2023-05-21T12:28:27.979Z,937.57